This is the latest recevied weather packets stored in our database for station/object KC4JES. If no packets are shown the sender has not sent any weather packets the latest 10 day(s).
| Time | Temp. | Humidity | Pressure | Rain* | Wind** | Luminosity | Snow |
|---|---|---|---|---|---|---|---|
| 1777958821 | 17.78° C | 76% | 1017.3 hPa | 0 mm | - | 0 W/m² | - |
| 1777958518 | 18.33° C | 77% | 1017.5 hPa | 0 mm | - | 0 W/m² | - |
| 1777958215 | 18.89° C | 74% | 1017.4 hPa | 0 mm | - | 0 W/m² | - |
| 1777957914 | 18.89° C | 74% | 1017.4 hPa | 0 mm | - | 0 W/m² | - |
| 1777957611 | 19.44° C | 73% | 1017.6 hPa | 0 mm | - | 0 W/m² | - |
| 1777957309 | 20° C | 66% | 1017.3 hPa | 0 mm | - | 0 W/m² | - |
| 1777957004 | 20° C | 66% | 1017.7 hPa | 0 mm | - | 0 W/m² | - |
| 1777956702 | 20° C | 66% | 1017.3 hPa | 0 mm | - | 0 W/m² | - |
| 1777956399 | 20° C | 66% | 1017.5 hPa | 0 mm | - | 0 W/m² | - |
| 1777956096 | 20° C | 67% | 1017.5 hPa | 0 mm | - | 0 W/m² | - |
| 1777955792 | 20° C | 67% | 1017.5 hPa | 0 mm | - | 0 W/m² | - |
| 1777955489 | 20° C | 67% | 1017.3 hPa | 0 mm | - | 0 W/m² | - |
| 1777955184 | 20° C | 67% | 1017.6 hPa | 0 mm | - | 0 W/m² | - |
| 1777954882 | 20° C | 67% | 1017.6 hPa | 0 mm | - | 0 W/m² | - |
| 1777954579 | 20° C | 67% | 1017.8 hPa | 0 mm | - | 0 W/m² | - |
| 1777954276 | 20° C | 67% | 1017.6 hPa | 0 mm | - | 0 W/m² | - |
| 1777953973 | 20.56° C | 65% | 1017.5 hPa | 0 mm | - | 0 W/m² | - |
| 1777953670 | 20.56° C | 65% | 1017.7 hPa | 0 mm | - | 0 W/m² | - |
| 1777953366 | 20.56° C | 65% | 1017.7 hPa | 0 mm | - | 0 W/m² | - |
| 1777953063 | 20° C | 66% | 1017.5 hPa | 0 mm | - | 0 W/m² | - |
| 1777952759 | 20.56° C | 65% | 1017.5 hPa | 0 mm | - | 0 W/m² | - |
| 1777952456 | 20.56° C | 66% | 1017.5 hPa | 0 mm | - | 0 W/m² | - |
| 1777952153 | 20.56° C | 66% | 1017.8 hPa | 0 mm | - | 0 W/m² | - |
| 1777951852 | 20.56° C | 66% | 1017.7 hPa | 0 mm | - | 0 W/m² | - |
| 1777951549 | 20.56° C | 65% | 1017.7 hPa | 0 mm | - | 0 W/m² | - |
* Rain latest hour (hover to see other rain measurements)
** Current wind speed in m/s (hover to see current wind gust speed)